Airfield :







YOU CAN JOIN US ON...

 
LOGIN :

Register | Disclaimer

   EN    FR    IT 

 









Legend :    VFR   Marginal VFR   IFR   Intensive IFR   Very Intensive IFR
Visi :
Ceiling :
>= 8 km
>= 3000ft
5 to 8 km
1000 to 3000 ft
1500m to 5 km
500 to 1000 ft
800 to 1500m
200 to 500 ft
< 800m
< 200 ft
Symbols :   Thunderstorms  Fog  Heavy snow  Heavy precipitations  Wind > 20 kt






- Airport Elevation : 84 ft
- IATA code : YJT


CYJT - Stephenville

CURRENT METAR :
  • 060600Z VRB02KT 15SM FEW038 FEW180 M04/M05 A2983 RMK SC1AC1 SLP104

EXPIRED METARs :
  • 060500Z 08004KT 070V130 15SM FEW035 M03/M05 A2986 RMK SC2 SLP114
  • 060400Z 17006KT 15SM SCT035 M02/M04 A2989 RMK SC3 SLP123

TAF TAF CYJT
Valid from the 06 at 06:00 until the 07 at 06:00 UTC


060539Z 0606/0706 VRB03KT P6SM FEW030
BECMG 0606/0608 17012KT
FM060900 18010G20KT P6SM FEW020 SCT080
FM061100 18012G22KT P6SM BKN040 OVC100
TEMPO 0611/0613 6SM -SN OVC020
FM061300 20018G28KT 6SM -SN OVC020
TEMPO 0613/0616 11/2SM -SN VV006
FM061600 22020G30KT 11/2SM -SN VV006
TEMPO 0616/0619 3SM -RASN BR OVC012
FM061900 24020G30KT 21/2SM -SN OVC005
TEMPO 0619/0623 3/4SM -SN
FM062300 26015G25KT 6SM -SHSN SCT008 OVC015
FM070400 25020G30KT 2SM -SN OVC008 RMK NXT FCST BY 061200Z



MET'MAP, your aeronautical weather chart ! - Copyright ORBIFLY December 2007 - Disclaimer

ORBIFLY MET'MAP TEAM :

Programming & Development : Alexandra Zaïnal
Concept & original design : Baudouin d'Aumeries
Assistance for programming : Marc-Olivier Méhu
Technical & hardware support : Manuel Goepfert

Contact : metmap@orbifly.com




SOURCES & CREDITS :

   NOAA